Time;durP1;ratioP1;P1;durP2;ratioP2;P2;SDS_P1;SDS_P2;PMS_P1;PMS_P2;Temp;Humidity;BMP_temperature;BMP_pressure;BME280_temperature;BME280_humidity;BME280_pressure;Samples;Min_cycle;Max_cycle;Signal;HPM_P1;HPM_P2
2023/04/07 00:01:52;;;;;;;0.50;0.50;;;;;;;1.08;60.76;101434.69;5045420;28;20135;-62
2023/04/07 00:04:18;;;;;;;0.50;0.50;;;;;;;1.06;61.07;101438.84;5045257;28;20017;-62
2023/04/07 00:06:44;;;;;;;0.50;0.50;;;;;;;1.07;60.97;101427.84;5045317;28;20097;-61
2023/04/07 00:09:10;;;;;;;0.50;0.50;;;;;;;0.92;61.30;101440.75;5045359;28;20036;-62
2023/04/07 00:11:36;;;;;;;0.60;0.60;;;;;;;0.82;61.44;101439.44;5045397;28;20436;-62
2023/04/07 00:14:01;;;;;;;0.50;0.50;;;;;;;0.81;61.65;101445.34;5045490;28;20080;-61
2023/04/07 00:16:27;;;;;;;0.50;0.50;;;;;;;0.88;61.57;101439.72;5045388;28;20025;-63
2023/04/07 00:18:52;;;;;;;0.50;0.50;;;;;;;0.79;61.97;101446.94;5045136;28;20085;-61
2023/04/07 00:21:17;;;;;;;0.50;0.50;;;;;;;0.69;62.24;101451.63;5045296;28;20116;-61
2023/04/07 00:23:43;;;;;;;0.50;0.50;;;;;;;0.64;62.31;101447.09;5044799;28;20021;-61
2023/04/07 00:26:09;;;;;;;0.60;0.60;;;;;;;0.77;62.52;101446.88;5045058;28;20362;-59
2023/04/07 00:28:34;;;;;;;0.50;0.50;;;;;;;0.70;62.50;101440.56;5045279;28;20024;-61
2023/04/07 00:31:00;;;;;;;0.60;0.60;;;;;;;0.68;62.68;101444.75;5045029;28;20025;-61
2023/04/07 00:33:25;;;;;;;0.60;0.60;;;;;;;0.54;62.95;101454.31;5044953;28;20013;-62
2023/04/07 00:35:53;;;;;;;0.82;0.82;;;;;;;0.51;62.99;101446.50;5044663;28;20026;-61
2023/04/07 00:38:18;;;;;;;0.55;0.55;;;;;;;0.43;63.08;101450.34;5045066;28;20489;-60
2023/04/07 00:40:44;;;;;;;0.60;0.60;;;;;;;0.46;63.04;101451.34;5045048;28;20025;-65
2023/04/07 00:43:09;;;;;;;0.60;0.60;;;;;;;0.41;63.16;101463.03;5044742;28;20072;-62
2023/04/07 00:45:35;;;;;;;0.60;0.60;;;;;;;0.39;63.31;101454.41;5044691;28;20021;-61
2023/04/07 00:48:01;;;;;;;0.57;0.57;;;;;;;0.33;63.51;101466.88;5044712;28;20033;-61
2023/04/07 00:50:26;;;;;;;0.60;0.60;;;;;;;0.31;63.47;101468.47;5045004;28;20030;-62
2023/04/07 00:52:53;;;;;;;0.50;0.50;;;;;;;0.32;63.61;101470.22;5044732;28;20028;-62
2023/04/07 00:55:19;;;;;;;0.60;0.60;;;;;;;0.26;63.62;101463.13;5044981;28;20021;-60
2023/04/07 00:57:45;;;;;;;0.60;0.60;;;;;;;0.32;63.67;101473.63;5044431;28;20036;-61
2023/04/07 01:00:11;;;;;;;0.60;0.60;;;;;;;0.30;63.91;101469.25;5044654;28;20025;-62
2023/04/07 01:02:57;;;;;;;0.60;0.60;;;;;;;0.22;64.03;101468.88;5044883;28;20033;-61
2023/04/07 01:05:34;;;;;;;0.70;0.70;;;;;;;0.32;63.85;101468.53;5044690;28;20064;-61
2023/04/07 01:08:12;;;;;;;0.50;0.50;;;;;;;0.22;64.29;101472.28;5027001;28;20072;-61
2023/04/07 01:10:45;;;;;;;0.50;0.50;;;;;;;0.12;64.36;101472.63;5044757;28;20097;-62
2023/04/07 01:13:25;;;;;;;0.55;0.55;;;;;;;0.22;64.27;101469.72;5044889;28;20022;-62
2023/04/07 01:15:55;;;;;;;0.50;0.50;;;;;;;0.11;64.36;101465.78;5044560;28;20519;-61
2023/04/07 01:18:23;;;;;;;0.60;0.60;;;;;;;0.15;64.10;101466.78;5027264;28;20048;-61
2023/04/07 01:20:51;;;;;;;0.57;0.57;;;;;;;0.13;64.13;101463.31;5044614;28;20036;-62
2023/04/07 01:23:38;;;;;;;0.50;0.50;;;;;;;0.05;64.12;101463.75;5044393;28;20017;-62
2023/04/07 01:26:13;;;;;;;0.60;0.60;;;;;;;0.03;64.18;101475.59;5044665;28;20029;-62
2023/04/07 01:29:07;;;;;;;0.60;0.60;;;;;;;0.08;64.25;101473.28;5044574;28;20030;-62
2023/04/07 01:31:36;;;;;;;0.60;0.60;;;;;;;-0.02;64.13;101470.22;5044557;28;20071;-61
2023/04/07 01:34:02;;;;;;;0.50;0.50;;;;;;;-0.05;64.27;101467.50;5044204;28;20052;-61
2023/04/07 01:36:32;;;;;;;0.60;0.60;;;;;;;0.02;64.23;101475.50;5046380;28;20195;-61
2023/04/07 01:38:59;;;;;;;0.50;0.50;;;;;;;0.10;64.07;101475.09;5048183;28;20465;-61
2023/04/07 01:41:25;;;;;;;0.60;0.60;;;;;;;-0.02;64.46;101470.22;5048266;28;20100;-62
2023/04/07 01:43:53;;;;;;;0.55;0.55;;;;;;;-0.06;64.48;101475.09;5047826;28;20041;-61
2023/04/07 01:46:19;;;;;;;0.70;0.70;;;;;;;0.04;64.52;101479.00;5048152;28;20026;-61
2023/04/07 01:48:46;;;;;;;0.60;0.60;;;;;;;0.02;64.35;101471.25;5047893;28;20089;-61
2023/04/07 01:51:17;;;;;;;0.60;0.60;;;;;;;-0.05;64.62;101475.16;5048075;28;20033;-61
2023/04/07 01:53:46;;;;;;;0.60;0.60;;;;;;;0.02;64.58;101472.97;5048027;28;20030;-61
2023/04/07 01:56:11;;;;;;;0.50;0.50;;;;;;;0.03;64.43;101470.50;5047645;28;20017;-61
2023/04/07 01:58:37;;;;;;;0.60;0.60;;;;;;;-0.01;64.73;101476.22;5047702;28;20037;-61
2023/04/07 02:01:02;;;;;;;0.60;0.60;;;;;;;0.05;64.50;101473.97;5047718;28;20025;-62
2023/04/07 02:03:40;;;;;;;0.60;0.60;;;;;;;-0.05;64.75;101474.31;5047558;28;20163;-65
2023/04/07 02:06:07;;;;;;;0.60;0.60;;;;;;;-0.08;64.97;101480.09;5047591;28;20085;-64
2023/04/07 02:08:36;;;;;;;0.60;0.60;;;;;;;-0.05;64.90;101484.53;5047798;28;20036;-61
2023/04/07 02:11:03;;;;;;;0.60;0.60;;;;;;;-0.15;65.35;101493.34;5047531;28;20029;-61
2023/04/07 02:13:29;;;;;;;0.60;0.60;;;;;;;-0.09;65.42;101497.91;5047676;28;20390;-61
2023/04/07 02:15:56;;;;;;;0.60;0.60;;;;;;;-0.21;65.52;101483.72;5047339;28;20021;-61
2023/04/07 02:18:24;;;;;;;0.60;0.60;;;;;;;-0.24;65.56;101488.66;5047076;28;20469;-61
2023/04/07 02:20:51;;;;;;;0.50;0.50;;;;;;;-0.32;65.79;101485.66;5047609;28;20029;-61
2023/04/07 02:23:17;;;;;;;0.50;0.50;;;;;;;-0.25;65.65;101486.88;5047203;28;20033;-62
2023/04/07 02:25:42;;;;;;;0.60;0.60;;;;;;;-0.34;65.64;101491.50;5047149;28;20021;-60
2023/04/07 02:28:08;;;;;;;0.60;0.60;;;;;;;-0.29;65.54;101483.28;5047363;28;20032;-63
2023/04/07 02:30:34;;;;;;;0.55;0.55;;;;;;;-0.43;65.82;101466.38;5047147;28;20160;-61
2023/04/07 02:33:00;;;;;;;0.60;0.60;;;;;;;-0.35;65.95;101482.09;5046755;28;20018;-62
2023/04/07 02:35:25;;;;;;;0.60;0.60;;;;;;;-0.39;66.12;101481.94;5047288;28;20025;-63
2023/04/07 02:37:51;;;;;;;0.50;0.50;;;;;;;-0.40;66.00;101477.59;5029247;28;20037;-62
2023/04/07 02:40:16;;;;;;;0.60;0.60;;;;;;;-0.35;66.26;101484.66;5047078;28;20014;-62
2023/04/07 02:42:42;;;;;;;0.60;0.60;;;;;;;-0.41;66.45;101495.38;5046712;28;20045;-62
2023/04/07 02:45:09;;;;;;;0.60;0.60;;;;;;;-0.44;66.21;101495.22;5047006;28;20019;-61
2023/04/07 02:47:36;;;;;;;0.57;0.57;;;;;;;-0.40;66.16;101492.91;5046422;28;20037;-61
2023/04/07 02:50:01;;;;;;;0.60;0.60;;;;;;;-0.47;66.36;101489.94;5046792;28;20108;-61
2023/04/07 02:52:27;;;;;;;0.50;0.50;;;;;;;-0.43;66.53;101500.41;5046793;28;20052;-61
2023/04/07 02:54:52;;;;;;;0.60;0.60;;;;;;;-0.52;66.77;101503.34;5046682;28;20059;-62
2023/04/07 02:57:18;;;;;;;0.60;0.60;;;;;;;-0.55;66.83;101505.72;5046667;28;20041;-62
2023/04/07 02:59:43;;;;;;;0.60;0.60;;;;;;;-0.60;67.03;101509.69;5046661;28;20030;-62
2023/04/07 03:02:09;;;;;;;0.60;0.60;;;;;;;-0.67;66.83;101505.06;5046597;28;20021;-61
2023/04/07 03:04:35;;;;;;;0.63;0.63;;;;;;;-0.66;67.06;101505.13;5046415;28;20021;-61
2023/04/07 03:07:00;;;;;;;0.60;0.60;;;;;;;-0.68;67.16;101506.72;5046322;28;20048;-62
2023/04/07 03:09:26;;;;;;;0.50;0.50;;;;;;;-0.70;67.10;101512.53;5046403;28;20022;-62
2023/04/07 03:11:52;;;;;;;0.70;0.70;;;;;;;-0.76;66.93;101516.50;5046410;28;20036;-62
2023/04/07 03:14:17;;;;;;;0.52;0.52;;;;;;;-0.78;66.81;101514.63;5046295;28;20025;-62
2023/04/07 03:16:43;;;;;;;0.60;0.60;;;;;;;-0.82;66.86;101516.16;5046189;28;20032;-62
2023/04/07 03:19:09;;;;;;;0.60;0.60;;;;;;;-0.83;66.79;101516.06;5045992;28;20083;-61
2023/04/07 03:21:36;;;;;;;0.60;0.60;;;;;;;-0.88;66.96;101523.47;5046342;28;20507;-62
2023/04/07 03:24:02;;;;;;;0.60;0.60;;;;;;;-0.90;67.02;101519.94;5046112;28;20025;-61
2023/04/07 03:26:27;;;;;;;0.60;0.60;;;;;;;-0.93;67.15;101518.09;5046046;28;20017;-62
2023/04/07 03:28:53;;;;;;;0.60;0.60;;;;;;;-0.92;67.22;101529.16;5046017;28;20021;-62
2023/04/07 03:31:18;;;;;;;0.60;0.60;;;;;;;-0.94;67.26;101526.53;5045894;28;20048;-62
2023/04/07 03:33:43;;;;;;;0.50;0.50;;;;;;;-0.94;67.16;101518.88;5045700;28;20111;-61
2023/04/07 03:36:09;;;;;;;0.60;0.60;;;;;;;-0.88;67.11;101524.31;5045968;28;20025;-61
2023/04/07 03:38:34;;;;;;;0.60;0.60;;;;;;;-0.83;67.53;101522.03;5045849;28;20025;-61
2023/04/07 03:41:00;;;;;;;0.60;0.60;;;;;;;-0.83;67.50;101539.00;5045974;28;20071;-61
2023/04/07 03:43:26;;;;;;;0.60;0.60;;;;;;;-0.81;67.96;101538.28;5045473;28;20065;-61
2023/04/07 03:45:54;;;;;;;7.03;3.10;;;;;;;-0.83;67.71;101532.22;5045524;28;20095;-61
2023/04/07 03:48:20;;;;;;;0.60;0.60;;;;;;;-0.75;67.65;101541.19;5045609;28;20028;-61
2023/04/07 03:50:45;;;;;;;0.60;0.60;;;;;;;-0.78;67.85;101541.03;5045752;28;20049;-61
2023/04/07 03:53:14;;;;;;;0.60;0.60;;;;;;;-0.80;67.79;101547.69;5045520;28;20029;-62
2023/04/07 03:55:39;;;;;;;0.60;0.60;;;;;;;-0.83;68.03;101537.31;5045576;28;20025;-61
2023/04/07 03:58:05;;;;;;;0.57;0.57;;;;;;;-0.78;68.21;101548.66;5045015;28;20028;-61
2023/04/07 04:00:32;;;;;;;0.60;0.60;;;;;;;-0.85;67.95;101538.94;5045390;28;20025;-62
2023/04/07 04:02:58;;;;;;;0.60;0.60;;;;;;;-0.84;67.95;101543.22;5027412;28;20025;-61
2023/04/07 04:05:24;;;;;;;0.60;0.60;;;;;;;-0.84;68.19;101535.56;5045294;28;20033;-62
2023/04/07 04:07:51;;;;;;;0.60;0.60;;;;;;;-0.83;68.11;101542.41;5045283;28;20361;-62
2023/04/07 04:10:17;;;;;;;0.60;0.60;;;;;;;-0.89;68.12;101542.06;5045462;28;20029;-61
2023/04/07 04:12:43;;;;;;;0.60;0.60;;;;;;;-0.93;68.18;101541.03;5045390;28;20151;-62
2023/04/07 04:15:09;;;;;;;0.80;0.80;;;;;;;-0.92;68.19;101547.00;5045235;28;20059;-61
2023/04/07 04:17:34;;;;;;;0.60;0.60;;;;;;;-0.93;68.04;101552.91;5045302;28;20064;-61
2023/04/07 04:20:00;;;;;;;0.60;0.60;;;;;;;-0.92;67.93;101552.09;5045069;28;20372;-62
2023/04/07 04:22:25;;;;;;;0.60;0.60;;;;;;;-0.83;68.29;101549.22;5045060;28;20029;-62
2023/04/07 04:24:50;;;;;;;0.95;0.95;;;;;;;-0.86;68.56;101554.13;5045059;28;20490;-62
2023/04/07 04:27:16;;;;;;;0.60;0.60;;;;;;;-0.83;68.60;101561.97;5044871;28;20029;-62
2023/04/07 04:29:41;;;;;;;0.57;0.57;;;;;;;-0.84;68.76;101562.72;5044962;28;20022;-62
2023/04/07 04:32:06;;;;;;;0.52;0.52;;;;;;;-0.85;68.88;101555.88;5044892;28;20033;-62
2023/04/07 04:34:32;;;;;;;0.55;0.55;;;;;;;-0.80;68.90;101559.59;5044823;28;20029;-60
2023/04/07 04:36:57;;;;;;;0.50;0.50;;;;;;;-0.71;69.10;101556.66;5044812;28;20029;-61
2023/04/07 04:39:23;;;;;;;0.60;0.60;;;;;;;-0.60;69.14;101555.59;5044795;28;20037;-62
2023/04/07 04:41:48;;;;;;;0.63;0.63;;;;;;;-0.45;69.37;101557.25;5044761;28;20487;-62
2023/04/07 04:44:13;;;;;;;0.60;0.60;;;;;;;-0.21;69.41;101567.94;5044659;28;20041;-62
2023/04/07 04:46:39;;;;;;;0.60;0.60;;;;;;;0.03;69.69;101562.41;5044796;28;20055;-66
2023/04/07 04:49:05;;;;;;;0.60;0.60;;;;;;;0.35;69.48;101552.13;5044593;28;20089;-61
2023/04/07 04:51:30;;;;;;;0.60;0.60;;;;;;;0.63;69.38;101566.31;5044828;28;20056;-63
2023/04/07 04:53:56;;;;;;;0.57;0.57;;;;;;;0.94;69.65;101564.44;5044667;28;20037;-64
2023/04/07 04:56:21;;;;;;;0.50;0.50;;;;;;;1.25;69.48;101568.50;5044721;28;20018;-62
2023/04/07 04:58:46;;;;;;;0.50;0.50;;;;;;;1.65;69.63;101566.09;5044716;28;20029;-63
2023/04/07 05:01:12;;;;;;;0.50;0.50;;;;;;;1.97;69.57;101577.84;5026848;28;20036;-65
2023/04/07 05:03:38;;;;;;;0.50;0.50;;;;;;;2.32;69.71;101582.81;5044340;28;20035;-63
2023/04/07 05:06:03;;;;;;;0.50;0.50;;;;;;;2.66;69.75;101586.00;5044350;28;20055;-64
2023/04/07 05:08:29;;;;;;;0.50;0.50;;;;;;;2.95;69.49;101590.63;5044708;28;20018;-63
2023/04/07 05:10:54;;;;;;;0.50;0.50;;;;;;;3.28;69.71;101585.13;5027912;28;20021;-63
2023/04/07 05:13:20;;;;;;;0.50;0.50;;;;;;;3.76;69.79;101590.41;5048634;28;20024;-63
2023/04/07 05:15:46;;;;;;;0.50;0.50;;;;;;;4.26;69.80;101574.25;5048533;28;20025;-64
2023/04/07 05:18:11;;;;;;;0.50;0.50;;;;;;;4.87;69.55;101574.69;5048276;28;20033;-64
2023/04/07 05:20:36;;;;;;;0.45;0.45;;;;;;;5.17;69.17;101571.41;5048772;28;20055;-62
2023/04/07 05:23:02;;;;;;;0.40;0.40;;;;;;;5.54;68.97;101583.69;5048727;28;20045;-64
2023/04/07 05:25:27;;;;;;;0.82;0.82;;;;;;;5.72;68.60;101587.69;5048457;28;20052;-64
2023/04/07 05:27:53;;;;;;;0.40;0.40;;;;;;;5.67;67.92;101569.50;5030559;28;20093;-63
2023/04/07 05:30:18;;;;;;;0.50;0.50;;;;;;;5.86;67.32;101580.38;5048437;28;20082;-64
2023/04/07 05:32:44;;;;;;;0.40;0.40;;;;;;;5.82;66.81;101581.97;5048348;28;20044;-64
2023/04/07 05:35:09;;;;;;;0.50;0.50;;;;;;;5.92;65.88;101575.38;5048237;28;20026;-63
2023/04/07 05:37:35;;;;;;;0.40;0.40;;;;;;;6.32;63.06;101591.19;5048081;28;20041;-62
2023/04/07 05:40:00;;;;;;;0.85;0.85;;;;;;;6.56;63.70;101584.94;5048311;28;20085;-64
2023/04/07 05:42:26;;;;;;;0.40;0.40;;;;;;;6.87;61.94;101597.81;5047951;28;20033;-63
2023/04/07 05:44:51;;;;;;;0.40;0.40;;;;;;;7.10;61.97;101592.34;5048241;28;20029;-64
2023/04/07 05:47:16;;;;;;;0.45;0.45;;;;;;;7.42;61.79;101589.69;5048346;28;20469;-63
2023/04/07 05:49:44;;;;;;;0.40;0.40;;;;;;;7.82;60.29;101607.81;5047918;28;20029;-64
2023/04/07 05:52:13;;;;;;;0.50;0.50;;;;;;;7.95;58.81;101598.63;5048140;28;20032;-64
2023/04/07 05:54:42;;;;;;;0.40;0.40;;;;;;;8.05;58.84;101604.88;5048017;28;20096;-63
2023/04/07 05:57:07;;;;;;;0.50;0.50;;;;;;;8.26;58.97;101596.69;5047884;28;20055;-64
2023/04/07 05:59:36;;;;;;;0.50;0.50;;;;;;;8.56;59.29;101594.72;5047919;28;20021;-64
2023/04/07 06:02:02;;;;;;;0.70;0.70;;;;;;;8.81;58.55;101605.53;5047808;28;20052;-64
2023/04/07 06:04:28;;;;;;;0.63;0.63;;;;;;;8.84;57.73;101597.81;5047591;28;20096;-63
2023/04/07 06:06:54;;;;;;;0.40;0.40;;;;;;;8.61;57.52;101603.44;5047665;28;20049;-66
2023/04/07 06:09:22;;;;;;;0.40;0.40;;;;;;;8.58;57.31;101611.13;5047774;28;20032;-63
2023/04/07 06:11:48;;;;;;;0.40;0.40;;;;;;;8.87;57.39;101605.63;5047630;28;20096;-64
2023/04/07 06:14:13;;;;;;;2.63;2.25;;;;;;;9.11;56.54;101614.69;5047632;28;20499;-68
2023/04/07 06:16:39;;;;;;;0.40;0.40;;;;;;;9.31;56.20;101616.75;5047513;28;20029;-65
2023/04/07 06:19:06;;;;;;;0.40;0.40;;;;;;;9.40;56.46;101608.22;5029529;28;20029;-70
2023/04/07 06:21:32;;;;;;;0.40;0.40;;;;;;;9.71;56.83;101611.31;5029055;28;20022;-65
2023/04/07 06:23:57;;;;;;;0.40;0.40;;;;;;;10.12;56.16;101617.03;5047492;28;20127;-62
2023/04/07 06:26:22;;;;;;;0.40;0.40;;;;;;;10.50;55.79;101618.38;5047287;28;20403;-64
2023/04/07 06:28:48;;;;;;;0.50;0.50;;;;;;;10.58;54.75;101615.88;5047382;28;20028;-64
2023/04/07 06:31:13;;;;;;;0.40;0.40;;;;;;;10.58;55.29;101614.16;5047284;28;20113;-64
2023/04/07 06:33:39;;;;;;;0.40;0.40;;;;;;;10.92;55.48;101621.44;5047120;28;20023;-64
2023/04/07 06:36:05;;;;;;;0.40;0.40;;;;;;;11.55;54.30;101627.16;5047242;28;20437;-64
2023/04/07 06:38:30;;;;;;;0.30;0.30;;;;;;;11.80;52.89;101625.59;5029745;28;20025;-66
2023/04/07 06:40:56;;;;;;;0.52;0.52;;;;;;;12.08;52.82;101620.56;5047187;28;20053;-65
2023/04/07 06:43:21;;;;;;;0.40;0.40;;;;;;;12.29;51.92;101625.84;5046987;28;20061;-64
2023/04/07 06:45:46;;;;;;;0.30;0.30;;;;;;;12.67;52.08;101621.66;5029060;28;20028;-65
2023/04/07 06:48:12;;;;;;;0.88;0.88;;;;;;;13.04;50.48;101632.13;5046773;28;20021;-63
2023/04/07 06:50:37;;;;;;;0.30;0.30;;;;;;;13.41;50.24;101625.16;5047237;28;20018;-65
2023/04/07 06:53:03;;;;;;;0.30;0.30;;;;;;;13.59;48.64;101627.81;5047002;28;20032;-64
2023/04/07 06:55:29;;;;;;;0.30;0.30;;;;;;;13.80;47.50;101628.63;5046894;28;20025;-63
2023/04/07 06:57:54;;;;;;;0.30;0.30;;;;;;;14.40;46.89;101625.78;5046821;28;20302;-63
2023/04/07 07:00:21;;;;;;;0.30;0.30;;;;;;;14.22;45.99;101630.22;5046888;28;20048;-64
2023/04/07 07:02:47;;;;;;;0.30;0.30;;;;;;;14.22;47.06;101620.66;5046872;28;20071;-63
2023/04/07 07:05:13;;;;;;;0.30;0.30;;;;;;;14.52;45.59;101628.34;5046677;28;20025;-62
2023/04/07 07:07:38;;;;;;;0.32;0.32;;;;;;;14.18;44.80;101623.28;5046505;28;20021;-64
2023/04/07 07:10:04;;;;;;;0.30;0.30;;;;;;;13.73;44.89;101626.91;5046633;28;20033;-64
2023/04/07 07:12:31;;;;;;;0.30;0.30;;;;;;;13.54;43.22;101633.88;5046734;28;20021;-65
2023/04/07 07:14:56;;;;;;;0.30;0.30;;;;;;;13.24;43.63;101629.50;5046871;28;20025;-64
2023/04/07 07:17:21;;;;;;;0.30;0.30;;;;;;;12.89;42.98;101633.84;5046505;28;20092;-64
2023/04/07 07:19:47;;;;;;;0.30;0.30;;;;;;;12.59;44.40;101619.88;5046126;28;20059;-64
2023/04/07 07:22:12;;;;;;;0.30;0.30;;;;;;;12.66;44.56;101628.59;5046380;28;20064;-63
2023/04/07 07:24:38;;;;;;;0.40;0.40;;;;;;;12.88;44.72;101637.31;5028376;28;20548;-64
2023/04/07 07:27:03;;;;;;;0.40;0.40;;;;;;;13.01;44.41;101627.78;5046257;28;20239;-63
2023/04/07 07:29:28;;;;;;;0.40;0.40;;;;;;;13.03;41.12;101638.22;5046205;28;20044;-63
2023/04/07 07:31:54;;;;;;;0.40;0.40;;;;;;;12.81;42.57;101637.31;5046284;28;20438;-64
2023/04/07 07:34:19;;;;;;;0.40;0.40;;;;;;;12.55;41.70;101644.19;5045117;28;20100;-64
2023/04/07 07:36:45;;;;;;;0.40;0.40;;;;;;;12.17;42.15;101644.91;5028157;28;20029;-63
2023/04/07 07:39:10;;;;;;;0.40;0.40;;;;;;;12.34;43.57;101638.03;5046184;28;20087;-63
2023/04/07 07:41:36;;;;;;;0.30;0.30;;;;;;;12.75;43.31;101635.53;5028215;28;20033;-63
2023/04/07 07:44:01;;;;;;;0.30;0.30;;;;;;;13.67;43.98;101633.00;5045804;28;20056;-63
2023/04/07 07:46:26;;;;;;;0.30;0.30;;;;;;;13.94;41.18;101641.66;5045772;28;20022;-64
2023/04/07 07:48:52;;;;;;;0.52;0.52;;;;;;;13.59;39.61;101642.59;5045718;28;20386;-63
2023/04/07 07:51:17;;;;;;;0.40;0.40;;;;;;;12.93;38.79;101646.88;5045990;28;20088;-63
2023/04/07 07:53:44;;;;;;;0.43;0.43;;;;;;;12.35;39.51;101644.09;5045760;28;20018;-62
2023/04/07 07:56:10;;;;;;;0.30;0.30;;;;;;;12.41;40.84;101651.97;5045708;28;20241;-62
2023/04/07 07:58:35;;;;;;;0.40;0.40;;;;;;;12.25;39.38;101656.22;5045961;28;20053;-63
2023/04/07 08:01:01;;;;;;;0.40;0.40;;;;;;;11.82;39.43;101660.28;5027878;28;20025;-62
2023/04/07 08:03:26;;;;;;;0.40;0.40;;;;;;;11.48;40.48;101660.03;5045273;28;20111;-63
2023/04/07 08:05:52;;;;;;;0.40;0.40;;;;;;;11.53;40.80;101656.59;5045608;28;20067;-64
2023/04/07 08:08:17;;;;;;;0.30;0.30;;;;;;;11.63;40.98;101667.94;5045494;28;20036;-64
2023/04/07 08:10:43;;;;;;;0.30;0.30;;;;;;;11.60;39.66;101670.53;5045517;28;20037;-63
2023/04/07 08:13:08;;;;;;;0.40;0.40;;;;;;;11.09;39.66;101660.56;5045499;28;20022;-65
2023/04/07 08:15:33;;;;;;;0.30;0.30;;;;;;;10.93;40.94;101662.13;5045476;28;20017;-63
2023/04/07 08:17:59;;;;;;;0.60;0.60;;;;;;;10.64;40.16;101667.88;5045282;28;20036;-62
2023/04/07 08:20:26;;;;;;;0.40;0.40;;;;;;;10.36;40.88;101668.41;5045184;28;20121;-64
2023/04/07 08:22:51;;;;;;;0.40;0.40;;;;;;;10.39;41.12;101667.56;5027576;28;20021;-63
2023/04/07 08:25:18;;;;;;;0.40;0.40;;;;;;;11.01;41.62;101672.59;5045283;28;20025;-65
2023/04/07 08:27:43;;;;;;;0.40;0.40;;;;;;;11.15;39.93;101665.81;5045250;28;20021;-63
2023/04/07 08:30:09;;;;;;;0.60;0.60;;;;;;;11.16;39.57;101671.91;5045150;28;20135;-63
2023/04/07 08:32:43;;;;;;;0.40;0.40;;;;;;;11.05;38.52;101676.13;5027346;28;20376;-63
2023/04/07 08:35:10;;;;;;;0.40;0.40;;;;;;;10.80;38.71;101678.47;5044921;28;20113;-64
2023/04/07 08:37:36;;;;;;;0.40;0.40;;;;;;;10.93;39.65;101675.13;5044927;28;20048;-63
2023/04/07 08:40:03;;;;;;;0.40;0.40;;;;;;;11.21;37.01;101671.94;5045151;28;20038;-64
2023/04/07 08:42:30;;;;;;;0.82;0.82;;;;;;;10.78;36.68;101675.84;5044666;28;20104;-63
2023/04/07 08:44:57;;;;;;;0.40;0.40;;;;;;;10.41;36.93;101679.69;5044698;28;20025;-63
2023/04/07 08:47:26;;;;;;;0.40;0.40;;;;;;;10.23;37.27;101676.84;5044726;28;20029;-62
2023/04/07 08:49:55;;;;;;;0.50;0.50;;;;;;;10.33;36.97;101683.94;5044731;28;20487;-63
2023/04/07 08:52:39;;;;;;;0.40;0.40;;;;;;;10.16;37.25;101673.31;5044916;28;20025;-64
2023/04/07 08:55:07;;;;;;;0.50;0.50;;;;;;;10.60;37.27;101681.69;5044850;28;20029;-63
2023/04/07 08:57:33;;;;;;;1.95;1.85;;;;;;;11.11;35.92;101682.25;5044835;28;20096;-63
2023/04/07 09:00:06;;;;;;;0.40;0.40;;;;;;;10.93;35.55;101671.69;5044851;28;20021;-62
2023/04/07 09:02:44;;;;;;;0.40;0.40;;;;;;;10.71;36.09;101672.31;5044801;28;20034;-64
2023/04/07 09:05:10;;;;;;;0.40;0.40;;;;;;;10.68;36.73;101674.88;5044702;28;20021;-62
2023/04/07 09:07:39;;;;;;;0.40;0.40;;;;;;;10.93;36.15;101669.09;5044727;28;20067;-62
2023/04/07 09:10:05;;;;;;;0.40;0.40;;;;;;;11.03;35.21;101678.69;5044793;28;20017;-62
2023/04/07 09:12:32;;;;;;;0.40;0.40;;;;;;;10.83;36.06;101676.75;5044602;28;20021;-63
2023/04/07 09:14:57;;;;;;;0.40;0.40;;;;;;;10.76;36.63;101677.56;5044869;28;20025;-64
2023/04/07 09:17:25;;;;;;;0.40;0.40;;;;;;;11.19;36.66;101673.66;5044491;28;20030;-63
2023/04/07 09:19:52;;;;;;;0.40;0.40;;;;;;;11.31;36.07;101671.16;5044486;28;20040;-63
2023/04/07 09:22:36;;;;;;;0.40;0.40;;;;;;;11.47;35.33;101671.31;5044477;28;20018;-62
2023/04/07 09:25:18;;;;;;;0.40;0.40;;;;;;;11.48;35.67;101667.84;5044741;28;20443;-63
2023/04/07 09:27:57;;;;;;;0.50;0.50;;;;;;;11.61;35.74;101671.41;5044489;28;20109;-64
2023/04/07 09:30:22;;;;;;;0.40;0.40;;;;;;;11.89;35.60;101666.38;5044487;28;20041;-63
2023/04/07 09:32:48;;;;;;;0.40;0.40;;;;;;;12.14;34.50;101677.84;5044440;28;20025;-63
2023/04/07 09:35:13;;;;;;;0.40;0.40;;;;;;;12.05;34.14;101669.97;5044263;28;20116;-63
2023/04/07 09:37:39;;;;;;;0.40;0.40;;;;;;;11.93;34.82;101670.78;5026540;28;20057;-62
2023/04/07 09:40:05;;;;;;;0.40;0.40;;;;;;;12.13;34.49;101675.25;5044368;28;20028;-61
2023/04/07 09:42:33;;;;;;;0.40;0.40;;;;;;;12.33;35.32;101672.72;5044262;28;20049;-62
2023/04/07 09:44:59;;;;;;;0.43;0.43;;;;;;;12.69;34.32;101661.59;5044468;28;20037;-63
2023/04/07 09:47:30;;;;;;;0.30;0.30;;;;;;;13.23;34.19;101658.19;5044539;28;20095;-63
2023/04/07 09:49:56;;;;;;;0.40;0.40;;;;;;;13.70;33.62;101666.06;5044212;28;20025;-63
2023/04/07 09:52:44;;;;;;;0.40;0.40;;;;;;;13.90;33.20;101659.94;5044492;28;20056;-63
2023/04/07 09:55:09;;;;;;;0.30;0.30;;;;;;;13.77;33.20;101652.09;5044269;28;20033;-63
2023/04/07 09:57:38;;;;;;;0.30;0.30;;;;;;;13.91;33.95;101652.09;5046441;28;20041;-63
2023/04/07 10:00:04;;;;;;;0.30;0.30;;;;;;;14.53;32.72;101650.13;5047742;28;20036;-62
2023/04/07 10:02:31;;;;;;;0.30;0.30;;;;;;;14.29;32.12;101654.59;5047852;28;20104;-62
2023/04/07 10:04:58;;;;;;;0.52;0.52;;;;;;;14.15;32.66;101646.81;5047685;28;20080;-63
2023/04/07 10:07:24;;;;;;;0.65;0.65;;;;;;;13.97;32.33;101652.09;5047869;28;20029;-63
2023/04/07 10:09:50;;;;;;;0.40;0.40;;;;;;;13.65;32.21;101649.53;5047798;28;20479;-63
2023/04/07 10:12:17;;;;;;;0.30;0.30;;;;;;;13.56;32.63;101651.25;5047860;28;20030;-63
2023/04/07 10:14:45;;;;;;;0.30;0.30;;;;;;;13.44;32.53;101640.81;5047731;28;20033;-63
2023/04/07 10:17:17;;;;;;;0.30;0.30;;;;;;;13.46;33.40;101642.56;5047642;28;20035;-63
2023/04/07 10:19:44;;;;;;;0.40;0.40;;;;;;;13.58;32.72;101640.81;5047396;28;20451;-62
2023/04/07 10:22:11;;;;;;;0.30;0.30;;;;;;;14.30;33.07;101628.47;5047557;28;20025;-63
2023/04/07 10:24:57;;;;;;;0.30;0.30;;;;;;;14.63;32.15;101625.69;5047785;28;20040;-62
2023/04/07 10:27:40;;;;;;;0.40;0.40;;;;;;;14.46;31.96;101638.81;5047582;28;20029;-64
2023/04/07 10:30:10;;;;;;;;;;;;;;;14.34;31.48;101645.88;5048034;28;20029;-62
2023/04/07 10:32:49;;;;;;;0.30;0.30;;;;;;;13.96;32.20;101639.88;5047465;28;19920;-63
2023/04/07 10:35:16;;;;;;;0.30;0.30;;;;;;;13.94;32.97;101625.13;5047505;28;20021;-62
2023/04/07 10:38:07;;;;;;;0.30;0.30;;;;;;;14.34;32.18;101635.44;5047292;28;20032;-63
2023/04/07 10:40:33;;;;;;;0.47;0.47;;;;;;;14.14;32.47;101632.88;5047313;28;20029;-63
2023/04/07 10:42:59;;;;;;;0.30;0.30;;;;;;;14.42;32.16;101639.72;5046929;28;20042;-63
2023/04/07 10:45:51;;;;;;;0.30;0.30;;;;;;;14.19;32.07;101625.00;5047313;28;20081;-63
2023/04/07 10:48:17;;;;;;;0.30;0.30;;;;;;;14.08;32.68;101648.56;5046940;28;20106;-63
2023/04/07 10:51:06;;;;;;;0.40;0.40;;;;;;;14.13;31.50;101642.47;5047031;28;20057;-63
2023/04/07 10:53:33;;;;;;;0.30;0.30;;;;;;;14.04;32.49;101636.41;5046928;28;20025;-63
2023/04/07 10:55:59;;;;;;;0.30;0.30;;;;;;;14.81;31.86;101648.25;5047044;28;20030;-63
2023/04/07 10:58:25;;;;;;;0.30;0.30;;;;;;;14.78;30.82;101634.28;5046857;28;20086;-63
2023/04/07 11:01:03;;;;;;;0.30;0.30;;;;;;;14.59;30.18;101640.50;5047184;28;20025;-63
2023/04/07 11:03:32;;;;;;;0.32;0.32;;;;;;;14.10;31.22;101634.66;5046606;28;20022;-61
2023/04/07 11:06:12;;;;;;;0.30;0.30;;;;;;;13.81;31.68;101627.75;5029442;28;20056;-62
2023/04/07 11:08:42;;;;;;;0.30;0.30;;;;;;;13.91;31.48;101625.13;5046434;28;20021;-63
2023/04/07 11:11:10;;;;;;;2.90;2.70;;;;;;;14.15;31.47;101633.75;5046753;28;20057;-62
2023/04/07 11:13:45;;;;;;;0.40;0.40;;;;;;;14.29;30.51;101629.34;5046778;28;20052;-63
2023/04/07 11:16:11;;;;;;;0.30;0.30;;;;;;;14.20;30.57;101624.16;5046778;28;20120;-62
2023/04/07 11:18:38;;;;;;;0.45;0.45;;;;;;;14.38;30.66;101625.81;5046314;28;20021;-63
2023/04/07 11:21:07;;;;;;;0.30;0.30;;;;;;;14.78;30.33;101618.59;5046658;28;20067;-63
2023/04/07 11:23:40;;;;;;;0.30;0.30;;;;;;;15.07;30.51;101621.06;5046470;28;20085;-63
2023/04/07 11:26:07;;;;;;;0.32;0.32;;;;;;;15.26;29.68;101610.44;5046444;28;20032;-63
2023/04/07 11:28:33;;;;;;;0.30;0.30;;;;;;;14.74;29.65;101623.84;5028542;28;20099;-62